sensor_id;sensor_type;location;lat;lon;timestamp;P1;durP1;ratioP1;P2;durP2;ratioP2
43552;SDS011;29153;42.696;23.218;2022-10-31T00:01:33;5.70;;;2.30;;
43552;SDS011;29153;42.696;23.218;2022-10-31T00:04:03;6.30;;;1.92;;
43552;SDS011;29153;42.696;23.218;2022-10-31T00:06:31;8.78;;;2.55;;
43552;SDS011;29153;42.696;23.218;2022-10-31T00:08:59;8.35;;;2.40;;
43552;SDS011;29153;42.696;23.218;2022-10-31T00:11:29;5.87;;;2.10;;
43552;SDS011;29153;42.696;23.218;2022-10-31T00:14:01;7.20;;;2.05;;
43552;SDS011;29153;42.696;23.218;2022-10-31T00:16:26;5.08;;;2.20;;
43552;SDS011;29153;42.696;23.218;2022-10-31T00:18:55;6.03;;;2.20;;
43552;SDS011;29153;42.696;23.218;2022-10-31T00:21:25;5.10;;;2.20;;
43552;SDS011;29153;42.696;23.218;2022-10-31T00:23:53;5.25;;;2.12;;
43552;SDS011;29153;42.696;23.218;2022-10-31T00:26:20;5.20;;;1.90;;
43552;SDS011;29153;42.696;23.218;2022-10-31T00:28:48;5.50;;;2.40;;
43552;SDS011;29153;42.696;23.218;2022-10-31T00:31:16;4.75;;;1.67;;
43552;SDS011;29153;42.696;23.218;2022-10-31T00:33:44;4.05;;;1.92;;
43552;SDS011;29153;42.696;23.218;2022-10-31T00:36:16;5.37;;;2.08;;
43552;SDS011;29153;42.696;23.218;2022-10-31T00:38:45;4.33;;;1.92;;
43552;SDS011;29153;42.696;23.218;2022-10-31T00:41:13;5.87;;;2.40;;
43552;SDS011;29153;42.696;23.218;2022-10-31T00:43:43;5.95;;;2.33;;
43552;SDS011;29153;42.696;23.218;2022-10-31T00:46:10;7.95;;;2.25;;
43552;SDS011;29153;42.696;23.218;2022-10-31T00:48:39;6.22;;;2.30;;
43552;SDS011;29153;42.696;23.218;2022-10-31T00:51:06;4.80;;;2.15;;
43552;SDS011;29153;42.696;23.218;2022-10-31T00:53:34;5.65;;;2.10;;
43552;SDS011;29153;42.696;23.218;2022-10-31T00:56:02;6.83;;;2.05;;
43552;SDS011;29153;42.696;23.218;2022-10-31T01:00:57;4.33;;;1.90;;
43552;SDS011;29153;42.696;23.218;2022-10-31T01:03:26;8.20;;;2.15;;
43552;SDS011;29153;42.696;23.218;2022-10-31T01:05:55;5.72;;;1.90;;
43552;SDS011;29153;42.696;23.218;2022-10-31T01:08:27;5.70;;;2.20;;
43552;SDS011;29153;42.696;23.218;2022-10-31T01:11:08;6.42;;;2.30;;
43552;SDS011;29153;42.696;23.218;2022-10-31T01:13:37;4.40;;;2.33;;
43552;SDS011;29153;42.696;23.218;2022-10-31T01:16:06;4.83;;;2.02;;
43552;SDS011;29153;42.696;23.218;2022-10-31T01:18:35;4.37;;;1.92;;
43552;SDS011;29153;42.696;23.218;2022-10-31T01:21:07;5.30;;;1.92;;
43552;SDS011;29153;42.696;23.218;2022-10-31T01:23:39;7.72;;;2.55;;
43552;SDS011;29153;42.696;23.218;2022-10-31T01:26:14;6.58;;;2.90;;
43552;SDS011;29153;42.696;23.218;2022-10-31T01:28:45;5.33;;;2.35;;
43552;SDS011;29153;42.696;23.218;2022-10-31T01:31:17;7.10;;;2.80;;
43552;SDS011;29153;42.696;23.218;2022-10-31T01:33:47;5.95;;;2.10;;
43552;SDS011;29153;42.696;23.218;2022-10-31T01:36:34;5.37;;;2.40;;
43552;SDS011;29153;42.696;23.218;2022-10-31T01:38:51;8.00;;;2.55;;
43552;SDS011;29153;42.696;23.218;2022-10-31T01:41:22;8.53;;;2.10;;
43552;SDS011;29153;42.696;23.218;2022-10-31T01:43:58;8.18;;;2.22;;
43552;SDS011;29153;42.696;23.218;2022-10-31T01:46:32;6.40;;;2.20;;
43552;SDS011;29153;42.696;23.218;2022-10-31T01:49:05;4.42;;;2.20;;
43552;SDS011;29153;42.696;23.218;2022-10-31T01:51:34;8.30;;;2.55;;
43552;SDS011;29153;42.696;23.218;2022-10-31T01:54:06;6.30;;;2.30;;
43552;SDS011;29153;42.696;23.218;2022-10-31T01:56:35;5.17;;;2.45;;
43552;SDS011;29153;42.696;23.218;2022-10-31T01:59:05;4.65;;;2.00;;
43552;SDS011;29153;42.696;23.218;2022-10-31T02:01:35;4.95;;;2.45;;
43552;SDS011;29153;42.696;23.218;2022-10-31T02:04:04;6.10;;;2.40;;
43552;SDS011;29153;42.696;23.218;2022-10-31T02:06:36;5.92;;;2.30;;
43552;SDS011;29153;42.696;23.218;2022-10-31T02:09:19;4.45;;;2.30;;
43552;SDS011;29153;42.696;23.218;2022-10-31T02:11:52;4.67;;;2.25;;
43552;SDS011;29153;42.696;23.218;2022-10-31T02:14:22;5.95;;;2.37;;
43552;SDS011;29153;42.696;23.218;2022-10-31T02:16:53;7.67;;;2.65;;
43552;SDS011;29153;42.696;23.218;2022-10-31T02:19:24;4.55;;;1.90;;
43552;SDS011;29153;42.696;23.218;2022-10-31T02:21:59;5.00;;;2.20;;
43552;SDS011;29153;42.696;23.218;2022-10-31T02:30:23;5.12;;;2.17;;
43552;SDS011;29153;42.696;23.218;2022-10-31T02:35:28;5.12;;;2.22;;
43552;SDS011;29153;42.696;23.218;2022-10-31T02:41:04;7.12;;;2.10;;
43552;SDS011;29153;42.696;23.218;2022-10-31T02:46:19;6.80;;;2.40;;
43552;SDS011;29153;42.696;23.218;2022-10-31T02:48:47;5.20;;;2.40;;
43552;SDS011;29153;42.696;23.218;2022-10-31T02:51:17;6.30;;;2.50;;
43552;SDS011;29153;42.696;23.218;2022-10-31T02:56:13;5.90;;;2.27;;
43552;SDS011;29153;42.696;23.218;2022-10-31T03:09:13;7.55;;;2.30;;
43552;SDS011;29153;42.696;23.218;2022-10-31T03:11:47;10.82;;;2.37;;
43552;SDS011;29153;42.696;23.218;2022-10-31T03:14:19;5.72;;;2.47;;
43552;SDS011;29153;42.696;23.218;2022-10-31T03:16:48;8.65;;;2.25;;
43552;SDS011;29153;42.696;23.218;2022-10-31T03:19:19;5.12;;;2.30;;
43552;SDS011;29153;42.696;23.218;2022-10-31T03:24:49;4.08;;;2.00;;
43552;SDS011;29153;42.696;23.218;2022-10-31T03:27:20;6.10;;;2.25;;
43552;SDS011;29153;42.696;23.218;2022-10-31T03:29:49;5.30;;;2.05;;
43552;SDS011;29153;42.696;23.218;2022-10-31T03:32:23;4.80;;;2.33;;
43552;SDS011;29153;42.696;23.218;2022-10-31T03:35:01;4.95;;;2.40;;
43552;SDS011;29153;42.696;23.218;2022-10-31T03:37:32;4.95;;;2.62;;
43552;SDS011;29153;42.696;23.218;2022-10-31T03:40:02;6.97;;;2.62;;
43552;SDS011;29153;42.696;23.218;2022-10-31T03:42:33;6.58;;;2.77;;
43552;SDS011;29153;42.696;23.218;2022-10-31T03:45:07;8.68;;;2.72;;
43552;SDS011;29153;42.696;23.218;2022-10-31T03:47:33;8.48;;;2.55;;
43552;SDS011;29153;42.696;23.218;2022-10-31T03:50:03;6.17;;;2.95;;
43552;SDS011;29153;42.696;23.218;2022-10-31T03:52:37;4.72;;;2.75;;
43552;SDS011;29153;42.696;23.218;2022-10-31T03:55:07;6.47;;;2.80;;
43552;SDS011;29153;42.696;23.218;2022-10-31T03:57:41;6.62;;;2.75;;
43552;SDS011;29153;42.696;23.218;2022-10-31T04:00:15;8.35;;;3.17;;
43552;SDS011;29153;42.696;23.218;2022-10-31T04:02:51;6.20;;;2.77;;
43552;SDS011;29153;42.696;23.218;2022-10-31T04:05:28;7.37;;;3.05;;
43552;SDS011;29153;42.696;23.218;2022-10-31T04:07:57;6.62;;;2.90;;
43552;SDS011;29153;42.696;23.218;2022-10-31T04:10:27;5.72;;;2.55;;
43552;SDS011;29153;42.696;23.218;2022-10-31T04:12:57;7.70;;;3.00;;
43552;SDS011;29153;42.696;23.218;2022-10-31T04:15:26;7.55;;;3.52;;
43552;SDS011;29153;42.696;23.218;2022-10-31T04:17:57;6.90;;;3.02;;
43552;SDS011;29153;42.696;23.218;2022-10-31T04:20:31;8.30;;;2.92;;
43552;SDS011;29153;42.696;23.218;2022-10-31T04:23:00;9.10;;;3.30;;
43552;SDS011;29153;42.696;23.218;2022-10-31T04:25:29;8.28;;;3.40;;
43552;SDS011;29153;42.696;23.218;2022-10-31T04:27:56;5.75;;;2.50;;
43552;SDS011;29153;42.696;23.218;2022-10-31T04:30:24;6.05;;;3.12;;
43552;SDS011;29153;42.696;23.218;2022-10-31T04:32:51;9.78;;;3.10;;
43552;SDS011;29153;42.696;23.218;2022-10-31T04:35:19;7.75;;;3.02;;
43552;SDS011;29153;42.696;23.218;2022-10-31T04:37:46;8.58;;;3.20;;
43552;SDS011;29153;42.696;23.218;2022-10-31T04:40:14;4.72;;;2.50;;
43552;SDS011;29153;42.696;23.218;2022-10-31T04:42:41;6.80;;;3.08;;
43552;SDS011;29153;42.696;23.218;2022-10-31T04:45:09;10.18;;;3.10;;
43552;SDS011;29153;42.696;23.218;2022-10-31T04:47:36;15.05;;;3.08;;
43552;SDS011;29153;42.696;23.218;2022-10-31T04:50:04;5.62;;;3.02;;
43552;SDS011;29153;42.696;23.218;2022-10-31T04:52:32;11.03;;;3.00;;
43552;SDS011;29153;42.696;23.218;2022-10-31T04:55:01;9.90;;;3.10;;
43552;SDS011;29153;42.696;23.218;2022-10-31T04:57:29;9.25;;;2.85;;
43552;SDS011;29153;42.696;23.218;2022-10-31T04:59:56;8.13;;;2.80;;
43552;SDS011;29153;42.696;23.218;2022-10-31T05:02:24;8.60;;;3.33;;
43552;SDS011;29153;42.696;23.218;2022-10-31T05:04:51;7.80;;;3.62;;
43552;SDS011;29153;42.696;23.218;2022-10-31T05:07:19;6.75;;;3.40;;
43552;SDS011;29153;42.696;23.218;2022-10-31T05:09:46;12.37;;;3.30;;
43552;SDS011;29153;42.696;23.218;2022-10-31T05:12:14;6.87;;;3.35;;
43552;SDS011;29153;42.696;23.218;2022-10-31T05:14:41;8.40;;;3.15;;
43552;SDS011;29153;42.696;23.218;2022-10-31T05:17:09;7.95;;;3.08;;
43552;SDS011;29153;42.696;23.218;2022-10-31T05:19:36;7.47;;;3.55;;
43552;SDS011;29153;42.696;23.218;2022-10-31T05:22:04;8.75;;;3.47;;
43552;SDS011;29153;42.696;23.218;2022-10-31T05:24:31;6.95;;;3.22;;
43552;SDS011;29153;42.696;23.218;2022-10-31T05:26:59;7.78;;;3.20;;
43552;SDS011;29153;42.696;23.218;2022-10-31T05:29:26;7.80;;;3.20;;
43552;SDS011;29153;42.696;23.218;2022-10-31T05:31:54;12.80;;;3.22;;
43552;SDS011;29153;42.696;23.218;2022-10-31T05:34:21;9.63;;;3.55;;
43552;SDS011;29153;42.696;23.218;2022-10-31T05:36:49;9.00;;;3.55;;
43552;SDS011;29153;42.696;23.218;2022-10-31T05:39:16;8.13;;;3.30;;
43552;SDS011;29153;42.696;23.218;2022-10-31T05:41:44;8.38;;;3.25;;
43552;SDS011;29153;42.696;23.218;2022-10-31T05:44:11;10.38;;;4.28;;
43552;SDS011;29153;42.696;23.218;2022-10-31T05:46:39;11.30;;;3.80;;
43552;SDS011;29153;42.696;23.218;2022-10-31T05:49:06;9.30;;;3.83;;
43552;SDS011;29153;42.696;23.218;2022-10-31T05:51:34;14.03;;;4.25;;
43552;SDS011;29153;42.696;23.218;2022-10-31T05:54:01;20.23;;;4.47;;
43552;SDS011;29153;42.696;23.218;2022-10-31T05:56:29;15.72;;;4.53;;
43552;SDS011;29153;42.696;23.218;2022-10-31T05:58:56;14.03;;;5.05;;
43552;SDS011;29153;42.696;23.218;2022-10-31T06:01:24;17.60;;;4.65;;
43552;SDS011;29153;42.696;23.218;2022-10-31T06:03:52;21.95;;;5.47;;
43552;SDS011;29153;42.696;23.218;2022-10-31T06:06:19;20.35;;;5.40;;
43552;SDS011;29153;42.696;23.218;2022-10-31T06:08:47;19.82;;;4.97;;
43552;SDS011;29153;42.696;23.218;2022-10-31T06:11:14;18.10;;;4.90;;
43552;SDS011;29153;42.696;23.218;2022-10-31T06:13:41;20.20;;;4.65;;
43552;SDS011;29153;42.696;23.218;2022-10-31T06:18:37;17.37;;;4.58;;
43552;SDS011;29153;42.696;23.218;2022-10-31T06:21:04;14.43;;;5.00;;
43552;SDS011;29153;42.696;23.218;2022-10-31T06:23:32;14.58;;;5.58;;
43552;SDS011;29153;42.696;23.218;2022-10-31T06:25:59;13.40;;;5.22;;
43552;SDS011;29153;42.696;23.218;2022-10-31T06:28:26;12.78;;;5.22;;
43552;SDS011;29153;42.696;23.218;2022-10-31T06:30:54;12.07;;;5.50;;
43552;SDS011;29153;42.696;23.218;2022-10-31T06:33:21;13.83;;;5.58;;
43552;SDS011;29153;42.696;23.218;2022-10-31T06:35:49;18.87;;;6.83;;
43552;SDS011;29153;42.696;23.218;2022-10-31T06:38:16;13.90;;;6.03;;
43552;SDS011;29153;42.696;23.218;2022-10-31T06:40:44;12.65;;;6.80;;
43552;SDS011;29153;42.696;23.218;2022-10-31T06:43:11;15.93;;;7.10;;
43552;SDS011;29153;42.696;23.218;2022-10-31T06:45:40;14.65;;;6.85;;
43552;SDS011;29153;42.696;23.218;2022-10-31T06:48:07;12.40;;;6.05;;
43552;SDS011;29153;42.696;23.218;2022-10-31T06:50:35;19.30;;;7.65;;
43552;SDS011;29153;42.696;23.218;2022-10-31T06:53:02;16.15;;;6.62;;
43552;SDS011;29153;42.696;23.218;2022-10-31T06:55:30;19.87;;;7.25;;
43552;SDS011;29153;42.696;23.218;2022-10-31T06:57:58;11.63;;;6.05;;
43552;SDS011;29153;42.696;23.218;2022-10-31T07:00:27;10.53;;;5.40;;
43552;SDS011;29153;42.696;23.218;2022-10-31T07:03:02;9.23;;;5.20;;
43552;SDS011;29153;42.696;23.218;2022-10-31T07:05:26;8.28;;;4.70;;
43552;SDS011;29153;42.696;23.218;2022-10-31T07:07:55;8.53;;;4.33;;
43552;SDS011;29153;42.696;23.218;2022-10-31T07:10:25;10.18;;;4.58;;
43552;SDS011;29153;42.696;23.218;2022-10-31T07:12:58;9.75;;;4.92;;
43552;SDS011;29153;42.696;23.218;2022-10-31T07:15:27;22.45;;;5.72;;
43552;SDS011;29153;42.696;23.218;2022-10-31T07:18:00;7.72;;;5.10;;
43552;SDS011;29153;42.696;23.218;2022-10-31T07:20:31;10.63;;;6.60;;
43552;SDS011;29153;42.696;23.218;2022-10-31T07:22:59;10.53;;;6.15;;
43552;SDS011;29153;42.696;23.218;2022-10-31T07:25:27;19.85;;;8.85;;
43552;SDS011;29153;42.696;23.218;2022-10-31T07:27:55;19.35;;;8.50;;
43552;SDS011;29153;42.696;23.218;2022-10-31T07:30:22;29.37;;;11.75;;
43552;SDS011;29153;42.696;23.218;2022-10-31T07:32:50;31.42;;;10.95;;
43552;SDS011;29153;42.696;23.218;2022-10-31T07:35:19;21.35;;;10.58;;
43552;SDS011;29153;42.696;23.218;2022-10-31T07:37:50;26.20;;;10.60;;
43552;SDS011;29153;42.696;23.218;2022-10-31T07:40:18;19.35;;;8.90;;
43552;SDS011;29153;42.696;23.218;2022-10-31T07:42:48;23.42;;;9.38;;
43552;SDS011;29153;42.696;23.218;2022-10-31T07:45:20;20.82;;;8.08;;
43552;SDS011;29153;42.696;23.218;2022-10-31T07:47:49;15.90;;;8.45;;
43552;SDS011;29153;42.696;23.218;2022-10-31T07:50:26;16.42;;;7.33;;
43552;SDS011;29153;42.696;23.218;2022-10-31T07:52:58;13.13;;;6.47;;
43552;SDS011;29153;42.696;23.218;2022-10-31T07:55:30;12.53;;;7.35;;
43552;SDS011;29153;42.696;23.218;2022-10-31T07:57:58;16.82;;;7.40;;
43552;SDS011;29153;42.696;23.218;2022-10-31T08:00:27;10.60;;;6.85;;
43552;SDS011;29153;42.696;23.218;2022-10-31T08:05:35;15.28;;;7.30;;
43552;SDS011;29153;42.696;23.218;2022-10-31T08:08:03;14.23;;;7.03;;
43552;SDS011;29153;42.696;23.218;2022-10-31T08:10:31;11.63;;;6.67;;
43552;SDS011;29153;42.696;23.218;2022-10-31T08:13:04;14.63;;;7.00;;
43552;SDS011;29153;42.696;23.218;2022-10-31T08:15:36;13.32;;;7.03;;
43552;SDS011;29153;42.696;23.218;2022-10-31T08:18:05;14.35;;;7.00;;
43552;SDS011;29153;42.696;23.218;2022-10-31T08:20:34;10.68;;;6.33;;
43552;SDS011;29153;42.696;23.218;2022-10-31T08:23:03;12.55;;;7.00;;
43552;SDS011;29153;42.696;23.218;2022-10-31T08:25:32;14.50;;;7.45;;
43552;SDS011;29153;42.696;23.218;2022-10-31T08:28:00;13.65;;;7.53;;
43552;SDS011;29153;42.696;23.218;2022-10-31T08:30:29;14.25;;;7.87;;
43552;SDS011;29153;42.696;23.218;2022-10-31T08:32:59;15.88;;;8.23;;
43552;SDS011;29153;42.696;23.218;2022-10-31T08:35:28;25.45;;;12.15;;
43552;SDS011;29153;42.696;23.218;2022-10-31T08:37:56;21.55;;;10.20;;
43552;SDS011;29153;42.696;23.218;2022-10-31T08:40:24;17.35;;;8.68;;
43552;SDS011;29153;42.696;23.218;2022-10-31T08:43:05;11.45;;;7.30;;
43552;SDS011;29153;42.696;23.218;2022-10-31T08:45:41;13.00;;;7.55;;
43552;SDS011;29153;42.696;23.218;2022-10-31T08:48:12;14.18;;;7.08;;
43552;SDS011;29153;42.696;23.218;2022-10-31T08:50:42;13.58;;;7.83;;
43552;SDS011;29153;42.696;23.218;2022-10-31T08:53:12;11.83;;;6.85;;
43552;SDS011;29153;42.696;23.218;2022-10-31T08:55:41;14.98;;;6.33;;
43552;SDS011;29153;42.696;23.218;2022-10-31T08:58:11;13.68;;;7.40;;
43552;SDS011;29153;42.696;23.218;2022-10-31T09:00:41;13.58;;;6.50;;
43552;SDS011;29153;42.696;23.218;2022-10-31T09:03:11;11.90;;;6.30;;
43552;SDS011;29153;42.696;23.218;2022-10-31T09:05:40;13.30;;;7.42;;
43552;SDS011;29153;42.696;23.218;2022-10-31T09:08:08;9.75;;;6.00;;
43552;SDS011;29153;42.696;23.218;2022-10-31T09:10:36;10.40;;;5.85;;
43552;SDS011;29153;42.696;23.218;2022-10-31T09:13:10;11.70;;;6.45;;
43552;SDS011;29153;42.696;23.218;2022-10-31T09:15:36;15.63;;;6.10;;
43552;SDS011;29153;42.696;23.218;2022-10-31T09:18:06;11.68;;;5.87;;
43552;SDS011;29153;42.696;23.218;2022-10-31T09:20:34;9.10;;;5.55;;
43552;SDS011;29153;42.696;23.218;2022-10-31T09:23:13;11.93;;;5.47;;
43552;SDS011;29153;42.696;23.218;2022-10-31T09:25:42;11.60;;;6.03;;
43552;SDS011;29153;42.696;23.218;2022-10-31T09:30:37;9.70;;;5.03;;
43552;SDS011;29153;42.696;23.218;2022-10-31T09:33:07;11.03;;;5.33;;
43552;SDS011;29153;42.696;23.218;2022-10-31T09:35:38;8.30;;;4.70;;
43552;SDS011;29153;42.696;23.218;2022-10-31T09:38:11;12.05;;;5.30;;
43552;SDS011;29153;42.696;23.218;2022-10-31T09:40:49;8.88;;;5.28;;
43552;SDS011;29153;42.696;23.218;2022-10-31T09:52:22;8.23;;;3.67;;
43552;SDS011;29153;42.696;23.218;2022-10-31T09:54:53;9.10;;;4.17;;
43552;SDS011;29153;42.696;23.218;2022-10-31T09:57:29;6.55;;;3.85;;
43552;SDS011;29153;42.696;23.218;2022-10-31T09:59:53;9.80;;;4.17;;
43552;SDS011;29153;42.696;23.218;2022-10-31T10:07:30;10.20;;;4.95;;
43552;SDS011;29153;42.696;23.218;2022-10-31T10:10:18;6.12;;;3.17;;
43552;SDS011;29153;42.696;23.218;2022-10-31T10:15:39;7.05;;;3.12;;
43552;SDS011;29153;42.696;23.218;2022-10-31T10:26:27;8.90;;;3.10;;
43552;SDS011;29153;42.696;23.218;2022-10-31T10:31:57;9.45;;;3.87;;
43552;SDS011;29153;42.696;23.218;2022-10-31T10:34:30;6.90;;;3.30;;
43552;SDS011;29153;42.696;23.218;2022-10-31T10:37:09;9.30;;;4.03;;
43552;SDS011;29153;42.696;23.218;2022-10-31T10:39:40;6.50;;;3.37;;
43552;SDS011;29153;42.696;23.218;2022-10-31T10:42:13;8.58;;;2.85;;
43552;SDS011;29153;42.696;23.218;2022-10-31T10:45:00;8.00;;;3.60;;
43552;SDS011;29153;42.696;23.218;2022-10-31T10:47:54;5.55;;;2.90;;
43552;SDS011;29153;42.696;23.218;2022-10-31T10:50:27;8.18;;;3.15;;
43552;SDS011;29153;42.696;23.218;2022-10-31T10:55:27;7.97;;;3.00;;
43552;SDS011;29153;42.696;23.218;2022-10-31T10:58:01;7.97;;;2.87;;
43552;SDS011;29153;42.696;23.218;2022-10-31T11:00:42;6.03;;;2.40;;
43552;SDS011;29153;42.696;23.218;2022-10-31T11:03:08;6.47;;;2.25;;
43552;SDS011;29153;42.696;23.218;2022-10-31T11:06:00;5.40;;;2.42;;
43552;SDS011;29153;42.696;23.218;2022-10-31T11:13:33;7.37;;;2.90;;
43552;SDS011;29153;42.696;23.218;2022-10-31T11:18:41;6.20;;;2.33;;
43552;SDS011;29153;42.696;23.218;2022-10-31T11:21:05;5.92;;;2.40;;
43552;SDS011;29153;42.696;23.218;2022-10-31T11:23:34;6.25;;;2.42;;
43552;SDS011;29153;42.696;23.218;2022-10-31T11:26:03;5.10;;;2.58;;
43552;SDS011;29153;42.696;23.218;2022-10-31T11:28:32;6.00;;;2.62;;
43552;SDS011;29153;42.696;23.218;2022-10-31T11:33:38;4.97;;;2.20;;
43552;SDS011;29153;42.696;23.218;2022-10-31T11:36:42;6.83;;;2.50;;
43552;SDS011;29153;42.696;23.218;2022-10-31T11:38:51;7.58;;;2.40;;
43552;SDS011;29153;42.696;23.218;2022-10-31T11:41:26;4.97;;;2.08;;
43552;SDS011;29153;42.696;23.218;2022-10-31T11:44:02;5.12;;;1.90;;
43552;SDS011;29153;42.696;23.218;2022-10-31T11:46:42;8.78;;;3.17;;
43552;SDS011;29153;42.696;23.218;2022-10-31T11:49:18;8.35;;;2.90;;
43552;SDS011;29153;42.696;23.218;2022-10-31T11:51:53;7.40;;;2.52;;
43552;SDS011;29153;42.696;23.218;2022-10-31T11:54:25;9.33;;;2.27;;
43552;SDS011;29153;42.696;23.218;2022-10-31T11:56:53;5.55;;;2.47;;
43552;SDS011;29153;42.696;23.218;2022-10-31T11:59:26;4.95;;;2.05;;
43552;SDS011;29153;42.696;23.218;2022-10-31T12:01:55;8.63;;;3.05;;
43552;SDS011;29153;42.696;23.218;2022-10-31T12:04:30;6.47;;;2.72;;
43552;SDS011;29153;42.696;23.218;2022-10-31T12:07:06;7.05;;;2.45;;
43552;SDS011;29153;42.696;23.218;2022-10-31T12:09:35;6.30;;;2.42;;
43552;SDS011;29153;42.696;23.218;2022-10-31T12:12:15;8.00;;;2.77;;
43552;SDS011;29153;42.696;23.218;2022-10-31T12:17:42;10.50;;;1.98;;
43552;SDS011;29153;42.696;23.218;2022-10-31T12:23:18;6.53;;;2.50;;
43552;SDS011;29153;42.696;23.218;2022-10-31T12:36:43;7.87;;;2.60;;
43552;SDS011;29153;42.696;23.218;2022-10-31T12:50:22;5.20;;;2.75;;
43552;SDS011;29153;42.696;23.218;2022-10-31T12:52:56;7.67;;;2.33;;
43552;SDS011;29153;42.696;23.218;2022-10-31T12:55:54;6.42;;;2.50;;
43552;SDS011;29153;42.696;23.218;2022-10-31T12:58:34;7.50;;;2.50;;
43552;SDS011;29153;42.696;23.218;2022-10-31T13:01:07;8.70;;;2.42;;
43552;SDS011;29153;42.696;23.218;2022-10-31T13:04:01;8.13;;;2.45;;
43552;SDS011;29153;42.696;23.218;2022-10-31T13:06:33;6.92;;;2.40;;
43552;SDS011;29153;42.696;23.218;2022-10-31T13:09:12;6.08;;;2.52;;
43552;SDS011;29153;42.696;23.218;2022-10-31T13:11:40;7.12;;;2.40;;
43552;SDS011;29153;42.696;23.218;2022-10-31T13:14:18;7.17;;;2.25;;
43552;SDS011;29153;42.696;23.218;2022-10-31T13:16:56;4.50;;;2.30;;
43552;SDS011;29153;42.696;23.218;2022-10-31T13:21:59;6.75;;;2.85;;
43552;SDS011;29153;42.696;23.218;2022-10-31T13:24:35;7.00;;;2.17;;
43552;SDS011;29153;42.696;23.218;2022-10-31T13:27:21;7.75;;;2.67;;
43552;SDS011;29153;42.696;23.218;2022-10-31T13:30:20;6.83;;;2.50;;
43552;SDS011;29153;42.696;23.218;2022-10-31T13:44:13;8.15;;;2.33;;
43552;SDS011;29153;42.696;23.218;2022-10-31T13:46:42;5.42;;;2.17;;
43552;SDS011;29153;42.696;23.218;2022-10-31T13:49:24;9.75;;;2.40;;
43552;SDS011;29153;42.696;23.218;2022-10-31T13:51:53;7.55;;;2.47;;
43552;SDS011;29153;42.696;23.218;2022-10-31T13:54:37;7.25;;;2.52;;
43552;SDS011;29153;42.696;23.218;2022-10-31T13:57:12;6.92;;;3.00;;
43552;SDS011;29153;42.696;23.218;2022-10-31T13:59:45;6.00;;;2.02;;
43552;SDS011;29153;42.696;23.218;2022-10-31T14:02:17;7.72;;;2.42;;
43552;SDS011;29153;42.696;23.218;2022-10-31T14:04:48;10.40;;;2.45;;
43552;SDS011;29153;42.696;23.218;2022-10-31T14:07:21;8.03;;;3.05;;
43552;SDS011;29153;42.696;23.218;2022-10-31T14:10:19;8.93;;;3.20;;
43552;SDS011;29153;42.696;23.218;2022-10-31T14:12:42;9.83;;;2.65;;
43552;SDS011;29153;42.696;23.218;2022-10-31T14:15:16;4.92;;;1.45;;
43552;SDS011;29153;42.696;23.218;2022-10-31T14:17:46;9.63;;;2.47;;
43552;SDS011;29153;42.696;23.218;2022-10-31T14:20:41;7.50;;;3.05;;
43552;SDS011;29153;42.696;23.218;2022-10-31T14:23:10;7.50;;;1.75;;
43552;SDS011;29153;42.696;23.218;2022-10-31T14:26:18;4.25;;;1.65;;
43552;SDS011;29153;42.696;23.218;2022-10-31T14:29:20;7.00;;;1.62;;
43552;SDS011;29153;42.696;23.218;2022-10-31T14:31:43;6.25;;;1.17;;
43552;SDS011;29153;42.696;23.218;2022-10-31T14:37:14;4.65;;;1.37;;
43552;SDS011;29153;42.696;23.218;2022-10-31T14:40:07;9.43;;;1.80;;
43552;SDS011;29153;42.696;23.218;2022-10-31T14:42:57;6.45;;;1.60;;
43552;SDS011;29153;42.696;23.218;2022-10-31T14:48:27;7.12;;;1.67;;
43552;SDS011;29153;42.696;23.218;2022-10-31T14:51:02;4.70;;;1.65;;
43552;SDS011;29153;42.696;23.218;2022-10-31T14:53:28;12.85;;;2.22;;
43552;SDS011;29153;42.696;23.218;2022-10-31T14:56:03;6.33;;;2.80;;
43552;SDS011;29153;42.696;23.218;2022-10-31T14:58:44;11.97;;;2.27;;
43552;SDS011;29153;42.696;23.218;2022-10-31T15:01:23;11.55;;;2.90;;
43552;SDS011;29153;42.696;23.218;2022-10-31T15:04:04;6.37;;;3.00;;
43552;SDS011;29153;42.696;23.218;2022-10-31T15:06:26;9.23;;;2.55;;
43552;SDS011;29153;42.696;23.218;2022-10-31T15:08:57;6.78;;;2.20;;
43552;SDS011;29153;42.696;23.218;2022-10-31T15:11:25;7.08;;;2.50;;
43552;SDS011;29153;42.696;23.218;2022-10-31T15:13:54;7.75;;;2.20;;
43552;SDS011;29153;42.696;23.218;2022-10-31T15:16:24;11.78;;;2.30;;
43552;SDS011;29153;42.696;23.218;2022-10-31T15:19:03;6.75;;;2.40;;
43552;SDS011;29153;42.696;23.218;2022-10-31T15:21:33;9.58;;;2.12;;
43552;SDS011;29153;42.696;23.218;2022-10-31T15:24:02;12.47;;;2.72;;
43552;SDS011;29153;42.696;23.218;2022-10-31T15:26:37;21.15;;;3.08;;
43552;SDS011;29153;42.696;23.218;2022-10-31T15:29:04;24.55;;;3.50;;
43552;SDS011;29153;42.696;23.218;2022-10-31T15:31:34;17.02;;;2.62;;
43552;SDS011;29153;42.696;23.218;2022-10-31T15:34:03;12.45;;;2.85;;
43552;SDS011;29153;42.696;23.218;2022-10-31T15:36:32;20.02;;;3.15;;
43552;SDS011;29153;42.696;23.218;2022-10-31T15:39:00;22.67;;;3.42;;
43552;SDS011;29153;42.696;23.218;2022-10-31T15:41:32;15.80;;;3.22;;
43552;SDS011;29153;42.696;23.218;2022-10-31T15:44:20;10.23;;;2.70;;
43552;SDS011;29153;42.696;23.218;2022-10-31T15:46:53;8.33;;;2.65;;
43552;SDS011;29153;42.696;23.218;2022-10-31T15:49:31;7.67;;;2.22;;
43552;SDS011;29153;42.696;23.218;2022-10-31T15:52:12;4.60;;;1.92;;
43552;SDS011;29153;42.696;23.218;2022-10-31T15:54:36;11.35;;;3.10;;
43552;SDS011;29153;42.696;23.218;2022-10-31T15:57:12;8.40;;;2.95;;
43552;SDS011;29153;42.696;23.218;2022-10-31T15:59:41;12.28;;;3.02;;
43552;SDS011;29153;42.696;23.218;2022-10-31T16:02:12;10.82;;;3.35;;
43552;SDS011;29153;42.696;23.218;2022-10-31T16:04:47;11.33;;;3.58;;
43552;SDS011;29153;42.696;23.218;2022-10-31T16:07:23;14.03;;;6.05;;
43552;SDS011;29153;42.696;23.218;2022-10-31T16:09:56;27.02;;;7.37;;
43552;SDS011;29153;42.696;23.218;2022-10-31T16:12:27;28.80;;;8.70;;
43552;SDS011;29153;42.696;23.218;2022-10-31T16:14:58;30.75;;;12.43;;
43552;SDS011;29153;42.696;23.218;2022-10-31T16:17:26;15.43;;;4.58;;
43552;SDS011;29153;42.696;23.218;2022-10-31T16:20:01;16.75;;;4.97;;
43552;SDS011;29153;42.696;23.218;2022-10-31T16:22:36;11.97;;;4.85;;
43552;SDS011;29153;42.696;23.218;2022-10-31T16:25:04;15.13;;;6.25;;
43552;SDS011;29153;42.696;23.218;2022-10-31T16:27:50;17.48;;;6.30;;
43552;SDS011;29153;42.696;23.218;2022-10-31T16:30:29;11.45;;;4.60;;
43552;SDS011;29153;42.696;23.218;2022-10-31T16:33:05;16.55;;;4.28;;
43552;SDS011;29153;42.696;23.218;2022-10-31T16:35:50;9.95;;;2.98;;
43552;SDS011;29153;42.696;23.218;2022-10-31T16:38:17;23.42;;;9.38;;
43552;SDS011;29153;42.696;23.218;2022-10-31T16:40:45;20.02;;;8.63;;
43552;SDS011;29153;42.696;23.218;2022-10-31T16:43:13;12.35;;;5.47;;
43552;SDS011;29153;42.696;23.218;2022-10-31T16:45:52;12.00;;;3.15;;
43552;SDS011;29153;42.696;23.218;2022-10-31T16:48:21;7.55;;;2.60;;
43552;SDS011;29153;42.696;23.218;2022-10-31T16:50:49;12.75;;;2.75;;
43552;SDS011;29153;42.696;23.218;2022-10-31T16:53:19;11.63;;;2.65;;
43552;SDS011;29153;42.696;23.218;2022-10-31T16:55:52;7.30;;;2.45;;
43552;SDS011;29153;42.696;23.218;2022-10-31T16:58:37;6.05;;;2.77;;
43552;SDS011;29153;42.696;23.218;2022-10-31T17:00:53;7.58;;;3.47;;
43552;SDS011;29153;42.696;23.218;2022-10-31T17:03:21;17.48;;;6.70;;